Time;durP1;ratioP1;P1;durP2;ratioP2;P2;SDS_P1;SDS_P2;PMS_P1;PMS_P2;Temp;Humidity;BMP_temperature;BMP_pressure;BME280_temperature;BME280_humidity;BME280_pressure;Samples;Min_cycle;Max_cycle;Signal;HPM_P1;HPM_P2
2020/12/17 00:00:53;;;;;;;10.43;9.43;;;;;;;8.05;82.53;100577.06;5003116;28;20230;-81
2020/12/17 00:03:18;;;;;;;11.37;10.47;;;;;;;8.07;83.31;100577.94;4999035;28;20197;-81
2020/12/17 00:05:44;;;;;;;9.93;9.07;;;;;;;8.05;82.08;100571.88;4998879;28;20587;-81
2020/12/17 00:08:10;;;;;;;10.20;9.40;;;;;;;7.98;80.93;100569.31;4999043;28;20664;-81
2020/12/17 00:10:38;;;;;;;10.63;9.63;;;;;;;7.98;82.57;100575.38;4998129;28;20282;-81
2020/12/17 00:13:03;;;;;;;11.10;10.20;;;;;;;7.86;80.85;100567.66;4998988;28;20221;-81
2020/12/17 00:15:29;;;;;;;12.03;10.93;;;;;;;7.92;83.10;100570.22;4999471;28;20218;-81
2020/12/17 00:17:56;;;;;;;13.07;11.93;;;;;;;7.90;81.25;100575.41;5004812;28;20221;-80
2020/12/17 00:20:23;;;;;;;13.60;12.50;;;;;;;7.81;81.00;100570.28;5002355;28;20584;-80
2020/12/17 00:22:50;;;;;;;13.40;12.10;;;;;;;7.69;80.49;100567.72;5005493;28;20218;-80
2020/12/17 00:25:17;;;;;;;13.33;11.93;;;;;;;7.63;80.50;100563.47;4999844;28;20198;-81
2020/12/17 00:27:44;;;;;;;14.53;13.27;;;;;;;7.56;80.75;100562.59;4998273;28;20240;-80
2020/12/17 00:30:13;;;;;;;13.33;12.13;;;;;;;7.52;80.44;100554.84;5002077;28;20228;-80
2020/12/17 00:32:40;;;;;;;12.97;11.87;;;;;;;7.42;79.78;100566.16;4998326;28;20205;-80
2020/12/17 00:35:08;;;;;;;12.97;11.77;;;;;;;7.32;80.32;100558.38;5003038;28;20209;-80
2020/12/17 00:37:35;;;;;;;14.53;13.27;;;;;;;7.37;81.45;100560.94;5002956;28;20665;-79
2020/12/17 00:40:03;;;;;;;12.77;11.67;;;;;;;7.24;80.47;100561.88;5004025;28;20237;-80
2020/12/17 00:42:29;;;;;;;13.13;11.90;;;;;;;7.15;80.71;100562.75;4997515;28;20590;-80
2020/12/17 00:44:55;;;;;;;14.60;13.30;;;;;;;7.16;81.28;100560.16;5000364;28;20317;-80
2020/12/17 00:47:21;;;;;;;14.30;13.00;;;;;;;7.08;80.77;100553.28;5002797;28;20202;-80
2020/12/17 00:49:47;;;;;;;14.10;12.80;;;;;;;7.07;81.49;100560.19;4997049;28;20301;-80
2020/12/17 00:52:14;;;;;;;15.83;14.30;;;;;;;6.90;82.32;100552.44;4998928;28;20260;-80
2020/12/17 00:54:40;;;;;;;15.30;13.93;;;;;;;7.01;81.79;100552.41;4998161;28;20198;-80
2020/12/17 00:57:06;;;;;;;15.30;13.90;;;;;;;7.00;81.51;100548.09;4998602;28;20208;-80
2020/12/17 00:59:32;;;;;;;15.30;13.83;;;;;;;7.06;81.48;100553.28;4999316;28;20232;-80
2020/12/17 01:01:58;;;;;;;15.70;14.30;;;;;;;7.12;82.16;100542.88;4998891;28;20202;-80
2020/12/17 01:04:24;;;;;;;16.20;14.70;;;;;;;7.12;81.96;100552.41;4998354;28;20249;-80
2020/12/17 01:06:50;;;;;;;15.43;14.07;;;;;;;7.16;81.54;100542.00;4998925;28;20200;-80
2020/12/17 01:09:16;;;;;;;15.93;14.27;;;;;;;7.24;81.53;100552.34;4998216;28;20231;-80
2020/12/17 01:11:42;;;;;;;16.87;15.40;;;;;;;7.13;82.35;100554.09;4998384;28;20536;-80
2020/12/17 01:14:08;;;;;;;16.00;14.47;;;;;;;7.21;82.15;100554.94;4998212;28;20204;-80
2020/12/17 01:16:34;;;;;;;15.53;14.13;;;;;;;7.23;82.05;100557.53;4997789;28;20299;-80
2020/12/17 01:19:00;;;;;;;15.87;14.27;;;;;;;7.22;82.25;100561.03;4998460;28;20227;-80
2020/12/17 01:21:26;;;;;;;15.57;14.27;;;;;;;7.24;81.96;100557.53;4998793;28;20225;-80
2020/12/17 01:23:52;;;;;;;15.60;14.30;;;;;;;7.24;81.54;100561.88;4998487;28;20209;-80
2020/12/17 01:26:19;;;;;;;15.77;14.37;;;;;;;7.25;81.85;100571.38;4997714;28;20199;-80
2020/12/17 01:28:45;;;;;;;15.13;13.77;;;;;;;7.31;81.69;100573.97;4998404;28;20670;-80
2020/12/17 01:31:12;;;;;;;14.83;13.53;;;;;;;7.29;80.88;100579.16;4998574;28;20241;-80
2020/12/17 01:33:41;;;;;;;14.50;13.20;;;;;;;7.27;80.86;100580.03;4998566;28;20217;-80
2020/12/17 01:36:09;;;;;;;16.03;14.53;;;;;;;7.24;81.01;100586.09;4997939;28;20209;-80
2020/12/17 01:38:36;;;;;;;17.27;14.40;;;;;;;7.25;80.92;100579.16;4998396;28;20198;-80
2020/12/17 01:41:02;;;;;;;13.57;12.47;;;;;;;7.11;81.01;100574.88;4998771;28;20277;-80
2020/12/17 01:43:35;;;;;;;14.10;12.83;;;;;;;7.06;81.09;100580.97;4998948;28;20199;-80
2020/12/17 01:46:01;;;;;;;13.70;12.40;;;;;;;7.08;81.64;100587.03;4997832;28;20269;-80
2020/12/17 01:48:28;;;;;;;16.03;14.07;;;;;;;6.92;82.23;100578.41;4998555;28;20200;-80
2020/12/17 01:50:54;;;;;;;14.83;13.33;;;;;;;6.92;82.16;100578.41;4997401;28;20217;-80
2020/12/17 01:53:20;;;;;;;15.43;13.53;;;;;;;6.97;82.05;100574.06;4998029;28;20407;-80
2020/12/17 01:55:46;;;;;;;15.30;13.70;;;;;;;6.90;82.78;100585.31;4997351;28;20205;-80
2020/12/17 01:58:22;;;;;;;14.97;13.57;;;;;;;6.98;82.98;100588.78;4990942;28;20263;-80
2020/12/17 02:00:54;;;;;;;15.90;14.37;;;;;;;7.01;83.29;100572.31;4997751;28;20300;-80
2020/12/17 02:03:21;;;;;;;14.63;13.23;;;;;;;7.03;82.34;100578.38;4998110;28;20263;-80
2020/12/17 02:05:47;;;;;;;13.83;12.57;;;;;;;6.95;82.01;100578.38;4997556;28;20199;-80
2020/12/17 02:08:15;;;;;;;15.43;13.83;;;;;;;6.99;82.64;100589.63;4986452;28;20208;-80
2020/12/17 02:10:41;;;;;;;13.83;12.53;;;;;;;7.06;83.09;100588.75;4993460;28;20226;-80
2020/12/17 02:13:11;;;;;;;13.43;12.33;;;;;;;7.16;82.80;100588.72;4997030;28;20218;-80
2020/12/17 02:15:36;;;;;;;14.90;13.53;;;;;;;7.16;82.64;100588.72;4996409;28;20231;-80
2020/12/17 02:18:03;;;;;;;14.57;13.17;;;;;;;7.11;82.91;100580.06;4997124;28;20235;-80
2020/12/17 02:20:29;;;;;;;14.33;12.87;;;;;;;7.14;82.89;100587.00;4996765;28;20238;-80
2020/12/17 02:22:55;;;;;;;14.40;12.90;;;;;;;7.20;82.05;100579.19;4997120;28;20664;-80
2020/12/17 02:25:22;;;;;;;14.07;12.60;;;;;;;7.21;82.82;100582.66;4996403;28;20203;-80
2020/12/17 02:27:48;;;;;;;13.50;12.20;;;;;;;7.23;82.22;100578.31;4997559;28;20205;-80
2020/12/17 02:30:14;;;;;;;14.03;12.77;;;;;;;7.24;82.36;100575.72;4996483;28;20311;-80
2020/12/17 02:32:40;;;;;;;14.30;12.53;;;;;;;7.12;82.78;100573.16;4996256;28;20208;-80
2020/12/17 02:35:09;;;;;;;14.60;13.33;;;;;;;7.17;83.07;100568.81;4996489;28;20233;-80
2020/12/17 02:37:37;;;;;;;13.47;12.37;;;;;;;7.14;82.40;100569.69;4997130;28;20202;-80
2020/12/17 02:40:03;;;;;;;13.70;12.37;;;;;;;7.19;82.59;100561.88;4996622;28;20238;-80
2020/12/17 02:42:30;;;;;;;14.40;11.30;;;;;;;7.18;81.99;100548.94;4996381;28;20724;-80
2020/12/17 02:44:56;;;;;;;14.73;12.47;;;;;;;6.97;83.34;100561.06;4996181;28;20203;-80
2020/12/17 02:47:21;;;;;;;13.60;12.40;;;;;;;6.86;83.83;100552.47;4996264;28;20621;-80
2020/12/17 02:49:47;;;;;;;13.93;12.63;;;;;;;6.90;83.59;100549.00;4995987;28;20743;-80
2020/12/17 02:52:13;;;;;;;14.73;13.43;;;;;;;6.99;83.48;100553.28;4996252;28;20718;-80
2020/12/17 02:54:39;;;;;;;13.53;12.33;;;;;;;7.01;83.37;100555.00;4995812;28;20217;-80
2020/12/17 02:57:05;;;;;;;14.77;13.47;;;;;;;7.09;82.45;100544.59;4996953;28;20400;-80
2020/12/17 02:59:32;;;;;;;14.93;13.50;;;;;;;7.12;83.17;100540.28;4995630;28;20291;-80
2020/12/17 03:01:58;;;;;;;14.97;13.63;;;;;;;7.10;82.18;100542.00;4994859;28;20205;-80
2020/12/17 03:04:23;;;;;;;13.80;12.50;;;;;;;7.15;82.79;100539.41;4995763;28;20666;-80
2020/12/17 03:06:49;;;;;;;14.10;12.80;;;;;;;7.26;81.94;100544.56;4996159;28;20205;-80
2020/12/17 03:09:16;;;;;;;14.00;12.60;;;;;;;7.33;81.39;100541.06;4995906;28;20281;-80
2020/12/17 03:11:42;;;;;;;14.80;13.50;;;;;;;7.35;81.41;100550.59;4996385;28;20196;-81
2020/12/17 03:14:08;;;;;;;12.37;11.27;;;;;;;7.33;81.11;100556.63;5004608;28;21166;-79
2020/12/17 03:16:34;;;;;;;13.27;12.07;;;;;;;7.35;81.71;100553.19;5008797;28;20206;-79
2020/12/17 03:19:01;;;;;;;13.90;12.60;;;;;;;7.41;81.08;100556.59;5007147;28;20225;-79
2020/12/17 03:21:27;;;;;;;12.20;11.00;;;;;;;7.21;81.99;100554.94;5009436;28;20220;-79
2020/12/17 03:23:53;;;;;;;12.37;11.17;;;;;;;7.27;81.48;100548.88;5006826;28;20198;-80
2020/12/17 03:26:19;;;;;;;13.63;11.80;;;;;;;7.32;81.34;100554.94;5008056;28;20199;-79
2020/12/17 03:28:45;;;;;;;12.87;11.73;;;;;;;7.33;81.27;100547.13;5008093;28;20645;-80
2020/12/17 03:31:10;;;;;;;12.87;11.53;;;;;;;7.34;81.55;100548.84;5007539;28;20205;-79
2020/12/17 03:33:37;;;;;;;13.40;12.10;;;;;;;7.25;81.50;100535.03;5006983;28;20266;-80
2020/12/17 03:36:04;;;;;;;12.77;11.43;;;;;;;7.26;81.72;100541.97;5005947;28;20803;-79
2020/12/17 03:38:30;;;;;;;13.23;11.90;;;;;;;7.27;80.75;100539.34;5007067;28;20202;-79
2020/12/17 03:40:56;;;;;;;12.50;11.30;;;;;;;7.32;81.66;100531.56;5000776;28;20314;-80
2020/12/17 03:43:21;;;;;;;10.73;9.83;;;;;;;7.27;82.24;100535.88;4998035;28;20207;-80
2020/12/17 03:45:47;;;;;;;11.97;10.77;;;;;;;7.28;82.05;100538.50;4997299;28;20675;-80
2020/12/17 03:48:13;;;;;;;11.47;10.43;;;;;;;7.16;82.49;100534.19;5002830;28;20205;-79
2020/12/17 03:50:40;;;;;;;11.60;10.27;;;;;;;7.20;82.34;100535.06;5006939;28;20256;-80
2020/12/17 03:53:05;;;;;;;12.33;11.03;;;;;;;7.15;82.28;100547.19;4997242;28;20216;-80
2020/12/17 03:55:32;;;;;;;14.17;11.33;;;;;;;7.24;82.09;100543.72;4996886;28;20231;-80
2020/12/17 03:57:58;;;;;;;10.87;9.87;;;;;;;7.22;81.69;100545.44;4998042;28;20228;-80
2020/12/17 04:00:24;;;;;;;11.20;9.90;;;;;;;7.22;82.21;100541.13;4996474;28;20234;-80
2020/12/17 04:02:50;;;;;;;11.50;10.50;;;;;;;7.27;82.30;100541.94;4997357;28;20232;-80
2020/12/17 04:05:16;;;;;;;11.37;10.37;;;;;;;7.22;82.39;100535.91;4997070;28;20223;-80
2020/12/17 04:07:43;;;;;;;13.50;12.30;;;;;;;7.25;81.04;100546.28;4996757;28;20715;-80
2020/12/17 04:10:09;;;;;;;11.27;10.33;;;;;;;7.30;81.59;100538.50;4996992;28;20219;-80
2020/12/17 04:12:34;;;;;;;12.23;11.13;;;;;;;7.29;80.73;100528.97;4997064;28;20220;-80
2020/12/17 04:15:00;;;;;;;12.10;10.80;;;;;;;7.35;81.13;100531.53;4999447;28;20240;-80
2020/12/17 04:17:26;;;;;;;12.30;11.20;;;;;;;7.39;80.90;100532.38;5000094;28;20246;-81
2020/12/17 04:19:52;;;;;;;13.20;12.00;;;;;;;7.44;80.00;100539.28;4999944;28;20231;-81
2020/12/17 04:22:18;;;;;;;13.23;11.93;;;;;;;7.48;79.74;100530.59;5000656;28;20654;-81
2020/12/17 04:24:46;;;;;;;12.20;11.20;;;;;;;7.55;79.64;100528.84;5000600;28;20213;-81
2020/12/17 04:27:12;;;;;;;12.17;10.97;;;;;;;7.51;79.80;100524.53;5000669;28;20198;-81
2020/12/17 04:29:38;;;;;;;12.27;11.27;;;;;;;7.53;79.15;100528.88;4999872;28;20225;-81
2020/12/17 04:32:04;;;;;;;13.17;11.83;;;;;;;7.56;79.03;100528.84;4999713;28;20289;-80
2020/12/17 04:34:30;;;;;;;11.60;10.70;;;;;;;7.60;79.28;100518.44;5000972;28;20205;-81
2020/12/17 04:36:56;;;;;;;11.90;10.90;;;;;;;7.62;79.71;100516.69;5000903;28;20202;-81
2020/12/17 04:39:22;;;;;;;13.23;11.93;;;;;;;7.56;79.09;100515.00;5000242;28;20687;-81
2020/12/17 04:41:51;;;;;;;12.17;11.07;;;;;;;7.60;79.28;100503.72;5000346;28;20259;-81
2020/12/17 04:44:17;;;;;;;11.63;10.63;;;;;;;7.64;79.13;100505.41;5000377;28;20203;-81
2020/12/17 04:46:48;;;;;;;12.17;11.07;;;;;;;7.67;78.88;100512.31;5000310;28;20198;-81
2020/12/17 04:49:19;;;;;;;11.23;10.33;;;;;;;7.53;78.64;100509.78;4999655;28;20331;-81
2020/12/17 04:51:47;;;;;;;11.33;10.33;;;;;;;7.63;78.93;100516.69;4999898;28;20197;-81
2020/12/17 04:54:15;;;;;;;12.17;11.07;;;;;;;7.59;77.75;100508.91;4985019;28;20214;-80
2020/12/17 04:56:42;;;;;;;12.13;11.13;;;;;;;7.65;78.74;100522.75;5000061;28;20200;-81
2020/12/17 04:59:09;;;;;;;11.27;10.27;;;;;;;7.69;78.36;100518.38;4999968;28;20239;-81
2020/12/17 05:01:38;;;;;;;12.00;10.97;;;;;;;7.67;77.84;100517.50;4999354;28;20230;-81
2020/12/17 05:04:06;;;;;;;12.53;11.43;;;;;;;7.65;78.56;100529.66;4998836;28;20213;-81
2020/12/17 05:06:32;;;;;;;11.60;10.70;;;;;;;7.61;78.93;100539.22;4999655;28;20204;-81
2020/12/17 05:08:58;;;;;;;11.80;10.70;;;;;;;7.62;78.91;100525.34;4999750;28;20221;-81
2020/12/17 05:11:24;;;;;;;12.00;10.90;;;;;;;7.66;78.93;100521.00;5001088;28;20205;-81
2020/12/17 05:13:54;;;;;;;11.97;10.87;;;;;;;7.68;79.43;100519.25;4999300;28;20202;-81
2020/12/17 05:16:21;;;;;;;10.93;9.93;;;;;;;7.66;78.43;100521.84;4999873;28;20200;-81
2020/12/17 05:18:46;;;;;;;11.50;10.50;;;;;;;7.68;78.49;100517.50;5000152;28;20260;-81
2020/12/17 05:21:12;;;;;;;11.53;10.63;;;;;;;7.68;78.90;100521.84;4999580;28;20221;-82
2020/12/17 05:23:38;;;;;;;11.40;10.43;;;;;;;7.61;79.34;100515.84;4998660;28;20654;-82
2020/12/17 05:26:04;;;;;;;11.70;10.70;;;;;;;7.65;78.89;100514.06;4997142;28;20208;-82
2020/12/17 05:28:31;;;;;;;12.03;10.93;;;;;;;7.63;79.57;100510.59;4998498;28;20207;-82
2020/12/17 05:30:57;;;;;;;12.07;11.07;;;;;;;7.58;79.03;100513.25;4998279;28;20217;-82
2020/12/17 05:33:24;;;;;;;12.70;11.57;;;;;;;7.62;78.90;100511.50;4997969;28;20559;-82
2020/12/17 05:35:50;;;;;;;11.50;10.50;;;;;;;7.64;79.13;100507.16;4998329;28;20202;-81
2020/12/17 05:38:21;;;;;;;11.27;10.27;;;;;;;7.65;79.47;100508.88;4998265;28;20217;-81
2020/12/17 05:40:47;;;;;;;11.60;10.60;;;;;;;7.66;79.19;100503.66;4997797;28;20229;-82
2020/12/17 05:43:21;;;;;;;11.37;10.37;;;;;;;7.71;79.22;100514.03;4997971;28;20232;-82
2020/12/17 05:45:46;;;;;;;12.03;11.00;;;;;;;7.76;78.41;100514.88;4997862;28;20627;-82
2020/12/17 05:48:13;;;;;;;11.87;10.77;;;;;;;7.80;78.56;100503.59;4995444;28;20204;-81
2020/12/17 05:50:52;;;;;;;11.70;10.60;;;;;;;7.82;79.07;100504.44;4997386;28;20223;-82
2020/12/17 05:53:17;;;;;;;11.97;10.87;;;;;;;7.84;78.21;100512.22;4990220;28;20209;-82
2020/12/17 05:55:44;;;;;;;11.20;10.30;;;;;;;7.86;78.94;100508.72;4997361;28;20852;-81
2020/12/17 05:58:10;;;;;;;11.63;10.63;;;;;;;7.89;79.12;100503.53;4998199;28;20211;-82
2020/12/17 06:00:36;;;;;;;11.23;10.33;;;;;;;7.83;79.00;100500.97;4997790;28;20713;-82
2020/12/17 06:03:02;;;;;;;11.10;10.20;;;;;;;7.76;79.27;100504.47;4997674;28;20202;-82
2020/12/17 06:05:30;;;;;;;10.87;9.87;;;;;;;7.71;78.72;100507.13;4997376;28;20206;-81
2020/12/17 06:07:59;;;;;;;11.67;10.67;;;;;;;7.70;79.49;100509.72;4997896;28;20210;-82
2020/12/17 06:10:27;;;;;;;11.67;10.57;;;;;;;7.69;80.10;100506.25;4997085;28;20224;-82
2020/12/17 06:12:54;;;;;;;11.37;10.27;;;;;;;7.62;79.30;100507.16;4997489;28;20208;-81
2020/12/17 06:15:21;;;;;;;12.27;11.27;;;;;;;7.63;79.49;100510.59;4996885;28;20201;-82
2020/12/17 06:17:52;;;;;;;11.23;10.23;;;;;;;7.65;80.15;100503.66;4998459;28;20206;-82
2020/12/17 06:20:20;;;;;;;12.03;10.93;;;;;;;7.61;80.01;100507.16;4998156;28;20230;-81
2020/12/17 06:22:54;;;;;;;11.70;10.60;;;;;;;7.62;79.16;100509.75;4994002;28;20200;-81
2020/12/17 06:25:21;;;;;;;11.07;9.97;;;;;;;7.68;79.17;100516.66;4996623;28;20211;-82
2020/12/17 06:27:49;;;;;;;11.20;10.30;;;;;;;7.69;79.06;100519.25;4994017;28;20738;-83
2020/12/17 06:30:17;;;;;;;12.43;11.03;;;;;;;7.67;79.94;100517.50;4997590;28;20229;-82
2020/12/17 06:32:43;;;;;;;11.60;10.67;;;;;;;7.66;80.10;100527.06;4997341;28;20204;-81
2020/12/17 06:35:22;;;;;;;11.73;10.73;;;;;;;7.72;78.63;100532.22;4997611;28;20201;-82
2020/12/17 06:37:49;;;;;;;11.90;10.90;;;;;;;7.75;78.11;100531.34;4996147;28;20207;-80
2020/12/17 06:40:26;;;;;;;11.27;10.37;;;;;;;7.78;78.98;100528.72;4997054;28;20253;-79
2020/12/17 06:42:52;;;;;;;11.80;10.60;;;;;;;7.81;77.96;100539.09;4994513;28;20208;-82
2020/12/17 06:45:25;;;;;;;11.50;10.50;;;;;;;7.83;78.45;100529.56;4993231;28;20278;-78
2020/12/17 06:47:51;;;;;;;11.50;10.40;;;;;;;7.88;78.72;100532.13;4994795;28;20214;-81
2020/12/17 06:50:25;;;;;;;11.87;10.87;;;;;;;7.94;78.53;100529.47;4995758;28;20236;-80
2020/12/17 06:53:05;;;;;;;11.87;10.83;;;;;;;7.95;78.18;100537.28;4995021;28;20258;-78
2020/12/17 06:55:42;;;;;;;11.10;10.20;;;;;;;7.94;77.77;100526.88;4994170;28;20200;-80
2020/12/17 06:58:22;;;;;;;11.13;10.13;;;;;;;7.96;77.94;100523.38;4995274;28;20213;-80
2020/12/17 07:00:51;;;;;;;11.37;10.37;;;;;;;7.89;77.47;100518.28;4997332;28;20226;-81
2020/12/17 07:03:46;;;;;;;11.03;10.07;;;;;;;7.82;78.07;100525.22;4999855;28;20588;-79
2020/12/17 07:06:13;;;;;;;11.40;10.40;;;;;;;7.89;77.61;100526.06;5003149;28;20282;-80
2020/12/17 07:08:39;;;;;;;11.97;10.87;;;;;;;7.89;78.16;100528.66;5002045;28;20209;-78
2020/12/17 07:11:07;;;;;;;11.90;10.90;;;;;;;7.83;77.60;100529.56;4996108;28;20202;-79
2020/12/17 07:13:39;;;;;;;11.63;10.53;;;;;;;7.90;77.74;100538.19;4998651;28;20299;-80
2020/12/17 07:16:06;;;;;;;11.37;10.27;;;;;;;7.96;77.91;100543.34;5000089;28;20293;-81
2020/12/17 07:18:32;;;;;;;10.97;10.00;;;;;;;7.92;77.17;100539.03;5004147;28;20210;-79
2020/12/17 07:21:03;;;;;;;11.03;9.97;;;;;;;7.92;77.53;100550.28;4996546;28;20227;-80
2020/12/17 07:23:33;;;;;;;11.67;10.67;;;;;;;7.99;77.19;100547.63;4999817;28;20201;-81
2020/12/17 07:26:07;;;;;;;11.13;10.13;;;;;;;8.07;76.82;100553.69;4994115;28;20210;-80
2020/12/17 07:28:32;;;;;;;11.63;10.63;;;;;;;8.05;77.75;100556.28;4996839;28;20201;-78
2020/12/17 07:30:58;;;;;;;11.20;10.17;;;;;;;8.05;77.55;100550.22;5002562;28;20352;-80
2020/12/17 07:33:52;;;;;;;12.13;10.80;;;;;;;8.11;76.68;100565.78;5002894;28;20212;-80
2020/12/17 07:36:18;;;;;;;11.33;10.33;;;;;;;8.02;76.33;100571.88;4965355;28;20675;-79
2020/12/17 07:38:44;;;;;;;11.33;10.13;;;;;;;8.01;77.05;100562.38;5001602;28;20208;-79
2020/12/17 07:41:26;;;;;;;11.93;10.93;;;;;;;8.07;77.07;100567.53;5000538;28;20224;-79
2020/12/17 07:43:52;;;;;;;11.97;10.97;;;;;;;8.08;77.32;100560.59;4998497;28;20213;-80
2020/12/17 07:46:33;;;;;;;12.40;11.07;;;;;;;8.04;76.83;100562.34;5002784;28;20202;-79
2020/12/17 07:48:59;;;;;;;11.70;10.70;;;;;;;8.11;77.03;100570.97;5000083;28;20218;-78
2020/12/17 07:51:30;;;;;;;10.67;9.87;;;;;;;8.07;76.79;100575.31;5002439;28;20683;-79
2020/12/17 07:53:57;;;;;;;11.43;10.53;;;;;;;7.95;77.19;100576.25;5006936;28;20208;-79
2020/12/17 07:56:24;;;;;;;11.53;10.53;;;;;;;8.04;77.09;100583.13;5000201;28;20198;-79
2020/12/17 07:58:51;;;;;;;12.00;10.87;;;;;;;7.99;77.88;100587.50;5007002;28;20208;-80
2020/12/17 08:01:17;;;;;;;11.47;10.57;;;;;;;7.90;76.80;100591.00;5005497;28;20703;-79
2020/12/17 08:03:44;;;;;;;11.83;10.73;;;;;;;7.98;77.72;100590.97;5005032;28;20260;-80
2020/12/17 08:06:12;;;;;;;10.97;10.07;;;;;;;7.95;77.27;100594.47;5003321;28;20225;-79
2020/12/17 08:08:39;;;;;;;11.83;10.73;;;;;;;8.03;76.82;100594.41;5006080;28;20197;-80
2020/12/17 08:11:06;;;;;;;11.80;10.73;;;;;;;8.09;77.65;100601.31;5004052;28;20207;-80
2020/12/17 08:13:33;;;;;;;10.93;10.00;;;;;;;8.00;76.87;100615.22;5002937;28;20212;-80
2020/12/17 08:15:59;;;;;;;11.83;10.60;;;;;;;8.08;77.57;100621.22;5004262;28;20196;-78
2020/12/17 08:18:26;;;;;;;11.87;10.87;;;;;;;8.10;76.98;100618.63;5004493;28;20208;-79
2020/12/17 08:21:04;;;;;;;11.97;10.90;;;;;;;8.09;76.64;100609.97;5003455;28;20244;-79
2020/12/17 08:23:47;;;;;;;11.43;10.47;;;;;;;8.12;77.11;100625.53;5003115;28;20205;-82
2020/12/17 08:26:45;;;;;;;11.27;10.37;;;;;;;8.18;77.05;100616.00;5003143;28;20253;-80
2020/12/17 08:29:27;;;;;;;11.13;10.23;;;;;;;8.18;77.02;100605.59;4999251;22;20236;-82
2020/12/17 08:31:53;;;;;;;10.87;9.87;;;;;;;8.15;76.65;100611.69;5083560;28;20196;-81
2020/12/17 08:34:20;;;;;;;10.73;9.83;;;;;;;8.11;76.78;100612.56;5093749;28;20219;-81
2020/12/17 08:36:46;;;;;;;11.33;10.30;;;;;;;8.18;76.80;100603.84;5098160;28;20197;-82
2020/12/17 08:41:59;;;;;;;10.90;10.00;;;;;;;8.16;76.69;100601.25;5110656;27;20226;-82
2020/12/17 08:47:46;;;;;;;10.77;9.87;;;;;;;8.18;77.48;100608.19;5073626;27;20429;-83
2020/12/17 08:50:12;;;;;;;11.77;10.77;;;;;;;8.14;77.82;100616.00;5126067;27;20263;-83
2020/12/17 08:52:38;;;;;;;10.73;9.83;;;;;;;8.10;76.27;100621.22;5127094;27;20575;-83
2020/12/17 08:55:06;;;;;;;10.63;9.83;;;;;;;8.11;76.53;100607.38;5117437;27;20204;-83
2020/12/17 08:57:32;;;;;;;12.17;11.03;;;;;;;8.11;75.98;100623.81;5128745;27;20208;-83
2020/12/17 08:59:59;;;;;;;9.70;9.00;;;;;;;8.25;76.87;100628.09;5112600;27;20641;-83
2020/12/17 09:02:52;;;;;;;10.87;9.87;;;;;;;8.43;78.18;100638.41;5114791;27;20221;-82
2020/12/17 09:05:19;;;;;;;12.50;11.50;;;;;;;8.59;79.69;100635.69;5075229;27;20502;-83
2020/12/17 09:08:35;;;;;;;10.47;9.47;;;;;;;8.71;75.52;100635.59;5120884;27;20261;-85
2020/12/17 09:11:03;;;;;;;10.70;9.77;;;;;;;8.85;79.17;100640.69;5123940;27;20716;-84
2020/12/17 09:13:29;;;;;;;10.30;9.50;;;;;;;8.79;75.18;100648.53;5117070;27;20198;-85
2020/12/17 09:16:00;;;;;;;10.63;9.73;;;;;;;8.99;80.81;100644.00;5118400;27;20205;-86
2020/12/17 09:18:29;;;;;;;10.07;9.27;;;;;;;9.04;76.21;100639.63;5118413;27;20209;-83
2020/12/17 09:21:09;;;;;;;10.23;9.43;;;;;;;8.87;74.33;100636.31;5118151;27;20232;-80
2020/12/17 09:23:35;;;;;;;10.87;10.03;;;;;;;8.66;74.19;100648.66;5116440;27;20194;-83
2020/12/17 09:26:14;;;;;;;9.87;9.17;;;;;;;8.61;75.77;100650.41;5118169;27;20611;-82
2020/12/17 09:28:51;;;;;;;11.53;10.53;;;;;;;8.71;75.74;100641.66;5114576;27;20202;-83
2020/12/17 09:31:27;;;;;;;10.30;9.50;;;;;;;8.64;75.07;100644.31;5126088;27;20224;-85
2020/12/17 09:34:07;;;;;;;11.33;10.33;;;;;;;8.76;76.60;100652.03;5121102;27;20202;-85
2020/12/17 09:36:33;;;;;;;10.93;10.03;;;;;;;8.74;74.82;100654.66;5124277;27;20280;-85
2020/12/17 09:39:09;;;;;;;11.83;10.93;;;;;;;8.70;74.23;100644.25;5121103;27;20214;-82
2020/12/17 09:41:38;;;;;;;10.23;9.43;;;;;;;8.69;75.20;100645.16;5117540;27;20204;-85
2020/12/17 09:44:05;;;;;;;11.47;10.47;;;;;;;8.73;75.21;100649.44;5122602;27;20723;-85
2020/12/17 09:46:43;;;;;;;10.97;10.07;;;;;;;8.80;74.29;100648.53;5124548;27;20201;-85
2020/12/17 09:49:23;;;;;;;11.03;10.13;;;;;;;8.85;74.52;100651.09;5124617;27;20222;-83
2020/12/17 09:52:00;;;;;;;10.67;9.80;;;;;;;8.77;74.14;100637.28;5117850;27;20201;-84
2020/12/17 09:54:26;;;;;;;10.93;10.00;;;;;;;8.77;75.07;100638.13;5111911;28;20207;-82
2020/12/17 09:57:03;;;;;;;11.00;10.13;;;;;;;8.82;74.63;100632.88;5124327;27;20286;-84
2020/12/17 10:00:04;;;;;;;10.37;9.57;;;;;;;8.77;74.67;100653.75;5114114;27;20221;-84
2020/12/17 10:02:31;;;;;;;10.53;9.70;;;;;;;8.87;74.95;100652.78;5118236;27;20233;-84
2020/12/17 10:04:58;;;;;;;10.20;9.40;;;;;;;8.88;74.69;100651.94;5116483;27;20204;-84
2020/12/17 10:07:24;;;;;;;11.93;10.83;;;;;;;8.86;74.65;100661.50;5126393;27;20202;-84
2020/12/17 10:09:50;;;;;;;11.07;10.13;;;;;;;8.85;75.12;100658.91;5114666;28;20229;-84
2020/12/17 10:12:43;;;;;;;10.20;9.43;;;;;;;8.85;74.97;100654.53;5122295;27;20198;-82
2020/12/17 10:15:14;;;;;;;10.47;9.67;;;;;;;8.88;74.62;100659.75;5112845;27;20211;-83
2020/12/17 10:17:43;;;;;;;10.40;9.63;;;;;;;8.88;74.85;100656.25;5120933;27;20196;-83
2020/12/17 10:20:12;;;;;;;10.20;9.47;;;;;;;8.93;74.68;100665.75;5113507;27;20222;-83
2020/12/17 10:22:37;;;;;;;10.80;9.90;;;;;;;8.82;75.17;100670.22;5113073;27;20250;-82
2020/12/17 10:25:03;;;;;;;10.50;9.70;;;;;;;8.85;74.51;100671.91;5111987;27;20210;-82
2020/12/17 10:27:30;;;;;;;11.37;10.47;;;;;;;8.75;74.81;100671.97;5116450;27;20206;-83
2020/12/17 10:30:08;;;;;;;11.13;10.03;;;;;;;8.75;76.05;100669.38;5106736;28;20227;-84
2020/12/17 10:32:34;;;;;;;10.70;9.80;;;;;;;8.58;75.87;100660.81;5117113;27;20645;-85
2020/12/17 10:35:02;;;;;;;11.83;10.83;;;;;;;8.67;76.93;100665.13;5113865;27;20543;-84
2020/12/17 10:37:28;;;;;;;11.00;10.13;;;;;;;8.69;77.01;100665.97;5121092;27;20254;-84
2020/12/17 10:39:55;;;;;;;11.20;10.30;;;;;;;8.70;76.57;100671.16;5116227;27;20709;-83
2020/12/17 10:42:22;;;;;;;10.77;9.97;;;;;;;8.71;76.95;100680.69;5115202;27;20266;-83
2020/12/17 10:44:48;;;;;;;11.53;10.47;;;;;;;8.62;77.42;100690.28;5107655;28;20209;-83
2020/12/17 10:47:33;;;;;;;11.30;10.30;;;;;;;8.62;77.54;100685.97;5118797;27;20201;-83
2020/12/17 10:50:00;;;;;;;11.83;10.93;;;;;;;8.65;77.65;100693.75;5111448;27;20351;-83
2020/12/17 10:52:26;;;;;;;11.17;10.17;;;;;;;8.64;77.85;100692.03;5122672;27;20196;-83
2020/12/17 10:54:55;;;;;;;11.07;10.17;;;;;;;8.57;78.53;100703.34;5116008;27;20207;-83
2020/12/17 10:57:21;;;;;;;11.47;10.57;;;;;;;8.59;78.13;100701.59;5126222;27;20196;-82
2020/12/17 10:59:58;;;;;;;11.37;10.47;;;;;;;8.67;79.20;100696.34;5109280;28;20268;-82
2020/12/17 11:05:45;;;;;;;11.23;10.33;;;;;;;8.62;79.15;100704.19;5102771;27;20212;-82
2020/12/17 11:08:11;;;;;;;12.37;11.17;;;;;;;8.51;80.02;100706.84;5116322;27;20280;-83
2020/12/17 11:10:37;;;;;;;12.17;11.17;;;;;;;8.51;80.04;100701.63;5109495;28;20216;-82
2020/12/17 11:13:03;;;;;;;18.90;17.27;;;;;;;8.55;80.99;100707.69;5118876;27;20675;-82
2020/12/17 11:15:29;;;;;;;14.77;13.30;;;;;;;8.58;80.48;100706.81;5106784;28;20286;-82
2020/12/17 11:17:55;;;;;;;11.77;10.70;;;;;;;8.68;80.67;100705.84;5113035;28;20688;-82
2020/12/17 11:20:21;;;;;;;12.40;11.40;;;;;;;8.69;80.66;100702.41;5110246;28;20696;-82
2020/12/17 11:22:47;;;;;;;14.90;13.47;;;;;;;8.74;80.96;100711.91;5119718;27;20209;-82
2020/12/17 11:25:15;;;;;;;11.80;10.70;;;;;;;8.75;79.82;100711.00;5114192;27;20209;-81
2020/12/17 11:27:41;;;;;;;11.57;10.67;;;;;;;8.61;80.11;100710.25;5124176;27;20205;-83
2020/12/17 11:30:08;;;;;;;12.07;10.97;;;;;;;8.70;80.25;100702.41;5117664;27;20244;-83
2020/12/17 11:32:34;;;;;;;10.80;9.80;;;;;;;8.78;80.35;100704.94;5120080;27;20194;-83
2020/12/17 11:35:00;;;;;;;11.63;10.67;;;;;;;8.78;80.42;100704.94;5116068;27;20578;-83